sensor_id;sensor_type;location;lat;lon;timestamp;pressure;altitude;pressure_sealevel;temperature;humidity
19763;BME280;10040;42.614;23.164;2022-07-18T00:01:28;93384.19;;;19.97;67.21
19763;BME280;10040;42.614;23.164;2022-07-18T00:03:57;93378.75;;;20.01;67.35
19763;BME280;10040;42.614;23.164;2022-07-18T00:06:25;93383.06;;;20.02;67.11
19763;BME280;10040;42.614;23.164;2022-07-18T00:08:52;93377.13;;;19.96;67.14
19763;BME280;10040;42.614;23.164;2022-07-18T00:11:20;93380.63;;;19.93;67.04
19763;BME280;10040;42.614;23.164;2022-07-18T00:13:48;93379.41;;;19.87;66.83
19763;BME280;10040;42.614;23.164;2022-07-18T00:16:16;93379.81;;;19.89;66.34
19763;BME280;10040;42.614;23.164;2022-07-18T00:18:44;93380.94;;;19.88;66.96
19763;BME280;10040;42.614;23.164;2022-07-18T00:21:13;93382.50;;;19.85;67.10
19763;BME280;10040;42.614;23.164;2022-07-18T00:23:41;93370.75;;;19.85;67.06
19763;BME280;10040;42.614;23.164;2022-07-18T00:26:09;93371.13;;;19.83;66.89
19763;BME280;10040;42.614;23.164;2022-07-18T00:28:36;93375.78;;;19.79;67.08
19763;BME280;10040;42.614;23.164;2022-07-18T00:31:04;93373.84;;;19.83;66.84
19763;BME280;10040;42.614;23.164;2022-07-18T00:33:31;93367.94;;;19.77;67.22
19763;BME280;10040;42.614;23.164;2022-07-18T00:35:59;93364.09;;;19.82;66.90
19763;BME280;10040;42.614;23.164;2022-07-18T00:38:28;93330.44;;;19.48;66.09
19763;BME280;10040;42.614;23.164;2022-07-18T00:40:55;93368.63;;;19.40;67.27
19763;BME280;10040;42.614;23.164;2022-07-18T00:43:23;93370.97;;;19.72;66.84
19763;BME280;10040;42.614;23.164;2022-07-18T00:45:50;93351.97;;;19.53;67.24
19763;BME280;10040;42.614;23.164;2022-07-18T00:48:19;93367.25;;;19.54;68.01
19763;BME280;10040;42.614;23.164;2022-07-18T00:50:47;93360.19;;;19.53;67.58
19763;BME280;10040;42.614;23.164;2022-07-18T00:53:15;93370.47;;;19.63;67.21
19763;BME280;10040;42.614;23.164;2022-07-18T00:55:45;93373.28;;;19.40;66.17
19763;BME280;10040;42.614;23.164;2022-07-18T00:58:13;93369.69;;;19.63;67.20
19763;BME280;10040;42.614;23.164;2022-07-18T01:00:41;93381.00;;;19.61;67.23
19763;BME280;10040;42.614;23.164;2022-07-18T01:03:26;93364.50;;;19.54;65.79
19763;BME280;10040;42.614;23.164;2022-07-18T01:05:54;93373.25;;;19.36;66.42
19763;BME280;10040;42.614;23.164;2022-07-18T01:08:21;93373.38;;;19.44;65.45
19763;BME280;10040;42.614;23.164;2022-07-18T01:10:50;93369.91;;;19.20;62.21
19763;BME280;10040;42.614;23.164;2022-07-18T01:13:20;93365.81;;;19.07;57.80
19763;BME280;10040;42.614;23.164;2022-07-18T01:15:47;93349.38;;;18.80;66.53
19763;BME280;10040;42.614;23.164;2022-07-18T01:18:15;93363.16;;;19.10;67.00
19763;BME280;10040;42.614;23.164;2022-07-18T01:20:44;93354.69;;;19.19;67.28
19763;BME280;10040;42.614;23.164;2022-07-18T01:23:11;93365.91;;;19.40;66.57
19763;BME280;10040;42.614;23.164;2022-07-18T01:25:39;93365.03;;;19.36;66.72
19763;BME280;10040;42.614;23.164;2022-07-18T01:28:06;93341.94;;;19.30;66.52
19763;BME280;10040;42.614;23.164;2022-07-18T01:30:34;93373.25;;;19.36;60.07
19763;BME280;10040;42.614;23.164;2022-07-18T01:33:02;93376.69;;;19.03;63.45
19763;BME280;10040;42.614;23.164;2022-07-18T01:35:30;93367.69;;;19.29;64.58
19763;BME280;10040;42.614;23.164;2022-07-18T01:38:00;93367.59;;;19.22;65.72
19763;BME280;10040;42.614;23.164;2022-07-18T01:40:28;93359.72;;;19.17;66.04
19763;BME280;10040;42.614;23.164;2022-07-18T01:42:56;93360.50;;;19.17;65.11
19763;BME280;10040;42.614;23.164;2022-07-18T01:45:23;93371.81;;;18.89;64.25
19763;BME280;10040;42.614;23.164;2022-07-18T01:47:51;93362.97;;;18.99;63.07
19763;BME280;10040;42.614;23.164;2022-07-18T01:50:18;93357.28;;;19.12;65.59
19763;BME280;10040;42.614;23.164;2022-07-18T01:52:46;93351.56;;;19.20;65.67
19763;BME280;10040;42.614;23.164;2022-07-18T01:55:15;93351.09;;;19.15;65.93
19763;BME280;10040;42.614;23.164;2022-07-18T01:57:42;93359.03;;;19.23;66.44
19763;BME280;10040;42.614;23.164;2022-07-18T02:00:11;93349.00;;;19.04;66.45
19763;BME280;10040;42.614;23.164;2022-07-18T02:02:39;93374.81;;;19.07;62.85
19763;BME280;10040;42.614;23.164;2022-07-18T02:05:07;93349.03;;;18.81;62.06
19763;BME280;10040;42.614;23.164;2022-07-18T02:07:36;93343.75;;;18.92;66.27
19763;BME280;10040;42.614;23.164;2022-07-18T02:10:06;93359.75;;;18.90;66.85
19763;BME280;10040;42.614;23.164;2022-07-18T02:12:36;93348.50;;;18.95;65.60
19763;BME280;10040;42.614;23.164;2022-07-18T02:15:06;93356.25;;;18.93;66.51
19763;BME280;10040;42.614;23.164;2022-07-18T02:17:35;93357.19;;;19.04;66.84
19763;BME280;10040;42.614;23.164;2022-07-18T02:20:04;93363.75;;;19.00;65.70
19763;BME280;10040;42.614;23.164;2022-07-18T02:22:32;93363.63;;;18.89;66.58
19763;BME280;10040;42.614;23.164;2022-07-18T02:25:00;93344.94;;;18.95;66.97
19763;BME280;10040;42.614;23.164;2022-07-18T02:27:27;93356.56;;;18.88;66.52
19763;BME280;10040;42.614;23.164;2022-07-18T02:29:56;93373.50;;;18.74;64.65
19763;BME280;10040;42.614;23.164;2022-07-18T02:32:24;93355.19;;;18.52;63.31
19763;BME280;10040;42.614;23.164;2022-07-18T02:34:52;93369.16;;;18.00;63.57
19763;BME280;10040;42.614;23.164;2022-07-18T02:37:20;93378.16;;;17.85;66.68
19763;BME280;10040;42.614;23.164;2022-07-18T02:39:47;93372.06;;;18.11;67.72
19763;BME280;10040;42.614;23.164;2022-07-18T02:42:14;93367.94;;;18.21;67.27
19763;BME280;10040;42.614;23.164;2022-07-18T02:44:42;93370.91;;;18.35;68.03
19763;BME280;10040;42.614;23.164;2022-07-18T02:47:13;93376.91;;;18.44;67.25
19763;BME280;10040;42.614;23.164;2022-07-18T02:49:40;93396.69;;;18.38;66.43
19763;BME280;10040;42.614;23.164;2022-07-18T02:52:08;93401.59;;;18.28;67.08
19763;BME280;10040;42.614;23.164;2022-07-18T02:54:37;93390.22;;;18.46;67.20
19763;BME280;10040;42.614;23.164;2022-07-18T02:57:05;93408.66;;;18.29;66.57
19763;BME280;10040;42.614;23.164;2022-07-18T02:59:33;93388.09;;;18.36;66.64
19763;BME280;10040;42.614;23.164;2022-07-18T03:02:00;93383.81;;;18.15;67.39
19763;BME280;10040;42.614;23.164;2022-07-18T03:04:29;93364.28;;;18.13;66.85
19763;BME280;10040;42.614;23.164;2022-07-18T03:06:57;93381.66;;;18.24;66.53
19763;BME280;10040;42.614;23.164;2022-07-18T03:09:25;93385.66;;;17.88;65.76
19763;BME280;10040;42.614;23.164;2022-07-18T03:11:53;93390.97;;;18.00;67.63
19763;BME280;10040;42.614;23.164;2022-07-18T03:14:21;93388.97;;;17.97;67.21
19763;BME280;10040;42.614;23.164;2022-07-18T03:16:49;93395.84;;;18.10;67.19
19763;BME280;10040;42.614;23.164;2022-07-18T03:19:17;93423.47;;;18.09;67.19
19763;BME280;10040;42.614;23.164;2022-07-18T03:21:46;93387.25;;;17.89;66.48
19763;BME280;10040;42.614;23.164;2022-07-18T03:24:13;93350.19;;;17.68;67.48
19763;BME280;10040;42.614;23.164;2022-07-18T03:26:41;93395.97;;;17.98;67.26
19763;BME280;10040;42.614;23.164;2022-07-18T03:29:09;93403.09;;;18.03;67.04
19763;BME280;10040;42.614;23.164;2022-07-18T03:31:37;93383.00;;;17.91;66.76
19763;BME280;10040;42.614;23.164;2022-07-18T03:34:05;93404.47;;;17.93;66.62
19763;BME280;10040;42.614;23.164;2022-07-18T03:36:32;93400.00;;;18.04;66.29
19763;BME280;10040;42.614;23.164;2022-07-18T03:39:02;93414.66;;;17.96;66.79
19763;BME280;10040;42.614;23.164;2022-07-18T03:41:30;93412.81;;;18.00;66.35
19763;BME280;10040;42.614;23.164;2022-07-18T03:43:58;93402.81;;;17.88;66.93
19763;BME280;10040;42.614;23.164;2022-07-18T03:46:25;93402.81;;;17.88;66.86
19763;BME280;10040;42.614;23.164;2022-07-18T03:48:53;93380.03;;;17.81;66.96
19763;BME280;10040;42.614;23.164;2022-07-18T03:51:20;93393.06;;;17.87;67.23
19763;BME280;10040;42.614;23.164;2022-07-18T03:53:48;93406.75;;;17.91;66.12
19763;BME280;10040;42.614;23.164;2022-07-18T03:56:17;93405.63;;;17.92;67.14
19763;BME280;10040;42.614;23.164;2022-07-18T03:58:45;93408.53;;;17.83;66.51
19763;BME280;10040;42.614;23.164;2022-07-18T04:01:12;93408.53;;;17.83;67.71
19763;BME280;10040;42.614;23.164;2022-07-18T04:03:39;93401.25;;;17.87;67.16
19763;BME280;10040;42.614;23.164;2022-07-18T04:06:07;93401.06;;;17.80;66.13
19763;BME280;10040;42.614;23.164;2022-07-18T04:08:35;93382.13;;;17.68;66.97
19763;BME280;10040;42.614;23.164;2022-07-18T04:11:02;93396.56;;;17.88;66.83
19763;BME280;10040;42.614;23.164;2022-07-18T04:13:31;93401.38;;;17.94;66.77
19763;BME280;10040;42.614;23.164;2022-07-18T04:15:59;93363.03;;;17.68;67.09
19763;BME280;10040;42.614;23.164;2022-07-18T04:18:26;93402.25;;;17.99;66.74
19763;BME280;10040;42.614;23.164;2022-07-18T04:20:54;93394.53;;;18.04;65.83
19763;BME280;10040;42.614;23.164;2022-07-18T04:23:21;93403.97;;;18.07;66.42
19763;BME280;10040;42.614;23.164;2022-07-18T04:25:49;93343.81;;;17.61;66.28
19763;BME280;10040;42.614;23.164;2022-07-18T04:28:17;93395.63;;;18.00;65.74
19763;BME280;10040;42.614;23.164;2022-07-18T04:30:46;93396.34;;;17.57;65.96
19763;BME280;10040;42.614;23.164;2022-07-18T04:33:14;93388.09;;;17.93;66.64
19763;BME280;10040;42.614;23.164;2022-07-18T04:35:41;93392.69;;;17.89;67.07
19763;BME280;10040;42.614;23.164;2022-07-18T04:38:09;93382.16;;;17.87;68.09
19763;BME280;10040;42.614;23.164;2022-07-18T04:40:37;93386.53;;;18.15;66.80
19763;BME280;10040;42.614;23.164;2022-07-18T04:43:05;93385.09;;;18.21;66.93
19763;BME280;10040;42.614;23.164;2022-07-18T04:45:33;93380.16;;;18.27;67.59
19763;BME280;10040;42.614;23.164;2022-07-18T04:48:04;93387.72;;;18.14;66.40
19763;BME280;10040;42.614;23.164;2022-07-18T04:50:32;93381.72;;;18.28;67.44
19763;BME280;10040;42.614;23.164;2022-07-18T04:53:00;93385.38;;;18.36;64.10
19763;BME280;10040;42.614;23.164;2022-07-18T04:55:27;93369.66;;;18.29;66.64
19763;BME280;10040;42.614;23.164;2022-07-18T04:57:55;93374.97;;;18.45;66.06
19763;BME280;10040;42.614;23.164;2022-07-18T05:00:24;93399.00;;;18.36;67.00
19763;BME280;10040;42.614;23.164;2022-07-18T05:02:53;93379.84;;;18.55;65.98
19763;BME280;10040;42.614;23.164;2022-07-18T05:05:24;93382.06;;;18.73;65.67
19763;BME280;10040;42.614;23.164;2022-07-18T05:07:53;93372.31;;;18.48;66.14
19763;BME280;10040;42.614;23.164;2022-07-18T05:10:22;93380.56;;;18.52;65.77
19763;BME280;10040;42.614;23.164;2022-07-18T05:12:51;93380.06;;;18.46;62.73
19763;BME280;10040;42.614;23.164;2022-07-18T05:15:21;93378.81;;;18.40;65.04
19763;BME280;10040;42.614;23.164;2022-07-18T05:17:49;93384.28;;;17.78;59.48
19763;BME280;10040;42.614;23.164;2022-07-18T05:20:20;93377.59;;;17.56;65.28
19763;BME280;10040;42.614;23.164;2022-07-18T05:22:50;93338.31;;;17.57;67.85
19763;BME280;10040;42.614;23.164;2022-07-18T05:25:18;93387.00;;;18.17;65.45
19763;BME280;10040;42.614;23.164;2022-07-18T05:27:47;93391.03;;;18.04;62.14
19763;BME280;10040;42.614;23.164;2022-07-18T05:30:15;93385.00;;;17.55;60.28
19763;BME280;10040;42.614;23.164;2022-07-18T05:32:43;93381.16;;;17.21;59.88
19763;BME280;10040;42.614;23.164;2022-07-18T05:35:12;93389.22;;;16.98;58.38
19763;BME280;10040;42.614;23.164;2022-07-18T05:37:40;93390.72;;;16.63;63.47
19763;BME280;10040;42.614;23.164;2022-07-18T05:40:11;93383.72;;;16.62;59.49
19763;BME280;10040;42.614;23.164;2022-07-18T05:42:38;93396.28;;;16.67;59.70
19763;BME280;10040;42.614;23.164;2022-07-18T05:45:07;93395.38;;;16.95;60.10
19763;BME280;10040;42.614;23.164;2022-07-18T05:47:35;93383.69;;;16.94;59.24
19763;BME280;10040;42.614;23.164;2022-07-18T05:50:03;93386.63;;;17.05;59.33
19763;BME280;10040;42.614;23.164;2022-07-18T05:52:31;93376.16;;;17.43;57.60
19763;BME280;10040;42.614;23.164;2022-07-18T05:54:58;93383.91;;;17.41;57.17
19763;BME280;10040;42.614;23.164;2022-07-18T05:57:28;93384.66;;;17.57;57.06
19763;BME280;10040;42.614;23.164;2022-07-18T05:59:55;93389.00;;;17.81;56.10
19763;BME280;10040;42.614;23.164;2022-07-18T06:02:23;93385.06;;;17.59;56.33
19763;BME280;10040;42.614;23.164;2022-07-18T06:04:50;93395.47;;;17.73;56.01
19763;BME280;10040;42.614;23.164;2022-07-18T06:07:18;93389.78;;;17.82;55.25
19763;BME280;10040;42.614;23.164;2022-07-18T06:09:45;93384.13;;;18.10;56.13
19763;BME280;10040;42.614;23.164;2022-07-18T06:12:12;93392.81;;;18.16;55.58
19763;BME280;10040;42.614;23.164;2022-07-18T06:14:41;93385.66;;;18.54;53.88
19763;BME280;10040;42.614;23.164;2022-07-18T06:17:09;93380.78;;;18.66;52.92
19763;BME280;10040;42.614;23.164;2022-07-18T06:19:36;93389.47;;;18.72;53.26
19763;BME280;10040;42.614;23.164;2022-07-18T06:22:05;93390.56;;;18.67;52.14
19763;BME280;10040;42.614;23.164;2022-07-18T06:24:32;93349.38;;;18.53;53.19
19763;BME280;10040;42.614;23.164;2022-07-18T06:27:00;93384.00;;;18.95;52.29
19763;BME280;10040;42.614;23.164;2022-07-18T06:29:28;93390.94;;;19.16;52.12
19763;BME280;10040;42.614;23.164;2022-07-18T06:31:56;93343.94;;;19.07;52.36
19763;BME280;10040;42.614;23.164;2022-07-18T06:34:24;93368.19;;;19.69;51.91
19763;BME280;10040;42.614;23.164;2022-07-18T06:36:51;93383.66;;;19.54;50.89
19763;BME280;10040;42.614;23.164;2022-07-18T06:39:19;93384.59;;;19.99;51.10
19763;BME280;10040;42.614;23.164;2022-07-18T06:41:46;93379.38;;;20.24;49.31
19763;BME280;10040;42.614;23.164;2022-07-18T06:44:14;93381.47;;;20.38;51.53
19763;BME280;10040;42.614;23.164;2022-07-18T06:46:42;93380.22;;;20.69;47.62
19763;BME280;10040;42.614;23.164;2022-07-18T06:49:11;93373.41;;;20.97;45.63
19763;BME280;10040;42.614;23.164;2022-07-18T06:51:38;93370.69;;;21.01;43.90
19763;BME280;10040;42.614;23.164;2022-07-18T06:54:06;93368.94;;;20.78;45.54
19763;BME280;10040;42.614;23.164;2022-07-18T06:56:33;93365.31;;;21.19;46.02
19763;BME280;10040;42.614;23.164;2022-07-18T06:59:01;93371.06;;;21.03;42.89
19763;BME280;10040;42.614;23.164;2022-07-18T07:01:28;93364.84;;;21.06;40.83
19763;BME280;10040;42.614;23.164;2022-07-18T07:03:56;93365.81;;;21.39;41.98
19763;BME280;10040;42.614;23.164;2022-07-18T07:06:25;93366.75;;;21.65;40.91
19763;BME280;10040;42.614;23.164;2022-07-18T07:08:52;93365.59;;;21.69;40.87
19763;BME280;10040;42.614;23.164;2022-07-18T07:11:19;93375.19;;;22.22;36.89
19763;BME280;10040;42.614;23.164;2022-07-18T07:13:48;93379.50;;;22.16;37.80
19763;BME280;10040;42.614;23.164;2022-07-18T07:16:15;93381.50;;;22.30;40.55
19763;BME280;10040;42.614;23.164;2022-07-18T07:18:43;93376.75;;;22.20;39.90
19763;BME280;10040;42.614;23.164;2022-07-18T07:21:10;93367.41;;;22.35;39.99
19763;BME280;10040;42.614;23.164;2022-07-18T07:23:39;93372.44;;;22.15;37.94
19763;BME280;10040;42.614;23.164;2022-07-18T07:26:07;93374.06;;;22.38;37.36
19763;BME280;10040;42.614;23.164;2022-07-18T07:28:35;93369.41;;;22.67;36.74
19763;BME280;10040;42.614;23.164;2022-07-18T07:31:02;93368.22;;;22.93;37.72
19763;BME280;10040;42.614;23.164;2022-07-18T07:33:31;93365.47;;;22.93;35.15
19763;BME280;10040;42.614;23.164;2022-07-18T07:35:59;93359.97;;;23.11;35.59
19763;BME280;10040;42.614;23.164;2022-07-18T07:38:27;93362.72;;;23.29;32.67
19763;BME280;10040;42.614;23.164;2022-07-18T07:40:56;93361.91;;;23.00;33.02
19763;BME280;10040;42.614;23.164;2022-07-18T07:43:27;93367.44;;;23.18;32.70
19763;BME280;10040;42.614;23.164;2022-07-18T07:45:54;93373.75;;;23.22;33.82
19763;BME280;10040;42.614;23.164;2022-07-18T07:48:22;93366.22;;;23.44;31.09
19763;BME280;10040;42.614;23.164;2022-07-18T07:50:50;93361.41;;;23.70;32.26
19763;BME280;10040;42.614;23.164;2022-07-18T07:53:17;93346.59;;;23.06;31.93
19763;BME280;10040;42.614;23.164;2022-07-18T07:55:45;93363.09;;;23.31;31.98
19763;BME280;10040;42.614;23.164;2022-07-18T07:58:14;93360.63;;;23.69;32.42
19763;BME280;10040;42.614;23.164;2022-07-18T08:00:41;93363.69;;;24.04;34.08
19763;BME280;10040;42.614;23.164;2022-07-18T08:03:09;93345.84;;;24.23;34.75
19763;BME280;10040;42.614;23.164;2022-07-18T08:05:43;93364.22;;;24.47;30.56
19763;BME280;10040;42.614;23.164;2022-07-18T08:08:11;93374.63;;;24.22;29.47
19763;BME280;10040;42.614;23.164;2022-07-18T08:10:38;93362.81;;;24.17;30.36
19763;BME280;10040;42.614;23.164;2022-07-18T08:13:06;93360.59;;;23.87;31.65
19763;BME280;10040;42.614;23.164;2022-07-18T08:15:35;93360.91;;;24.07;33.10
19763;BME280;10040;42.614;23.164;2022-07-18T08:18:03;93366.44;;;24.04;33.53
19763;BME280;10040;42.614;23.164;2022-07-18T08:20:30;93362.91;;;23.99;31.43
19763;BME280;10040;42.614;23.164;2022-07-18T08:23:00;93367.44;;;24.31;30.84
19763;BME280;10040;42.614;23.164;2022-07-18T08:25:29;93364.03;;;24.16;30.53
19763;BME280;10040;42.614;23.164;2022-07-18T08:27:57;93360.38;;;24.34;30.27
19763;BME280;10040;42.614;23.164;2022-07-18T08:30:25;93362.63;;;24.46;30.13
19763;BME280;10040;42.614;23.164;2022-07-18T08:32:54;93365.41;;;24.46;28.73
19763;BME280;10040;42.614;23.164;2022-07-18T08:35:22;93353.09;;;23.95;30.78
19763;BME280;10040;42.614;23.164;2022-07-18T08:37:49;93358.00;;;24.32;30.51
19763;BME280;10040;42.614;23.164;2022-07-18T08:40:17;93359.84;;;24.57;29.54
19763;BME280;10040;42.614;23.164;2022-07-18T08:42:44;93359.47;;;24.48;33.04
19763;BME280;10040;42.614;23.164;2022-07-18T08:45:12;93358.09;;;24.22;30.08
19763;BME280;10040;42.614;23.164;2022-07-18T08:47:39;93367.16;;;24.11;31.67
19763;BME280;10040;42.614;23.164;2022-07-18T08:50:09;93363.66;;;24.07;32.56
19763;BME280;10040;42.614;23.164;2022-07-18T08:52:36;93360.50;;;24.09;31.70
19763;BME280;10040;42.614;23.164;2022-07-18T08:55:07;93359.47;;;24.48;30.70
19763;BME280;10040;42.614;23.164;2022-07-18T08:57:34;93364.13;;;24.65;31.57
19763;BME280;10040;42.614;23.164;2022-07-18T09:00:03;93360.91;;;24.74;30.48
19763;BME280;10040;42.614;23.164;2022-07-18T09:02:31;93366.44;;;24.74;29.28
19763;BME280;10040;42.614;23.164;2022-07-18T09:05:00;93351.75;;;24.84;30.31
19763;BME280;10040;42.614;23.164;2022-07-18T09:07:31;93357.66;;;24.86;29.43
19763;BME280;10040;42.614;23.164;2022-07-18T09:10:03;93350.22;;;24.80;29.65
19763;BME280;10040;42.614;23.164;2022-07-18T09:12:31;93354.72;;;24.59;29.65
19763;BME280;10040;42.614;23.164;2022-07-18T09:15:04;93338.13;;;24.63;31.16
19763;BME280;10040;42.614;23.164;2022-07-18T09:17:33;93350.47;;;24.44;29.92
19763;BME280;10040;42.614;23.164;2022-07-18T09:20:05;93351.03;;;24.80;31.46
19763;BME280;10040;42.614;23.164;2022-07-18T09:22:36;93345.69;;;25.04;29.86
19763;BME280;10040;42.614;23.164;2022-07-18T09:25:06;93343.59;;;25.19;30.83
19763;BME280;10040;42.614;23.164;2022-07-18T09:27:37;93354.94;;;25.32;30.37
19763;BME280;10040;42.614;23.164;2022-07-18T09:30:23;93348.69;;;25.20;29.81
19763;BME280;10040;42.614;23.164;2022-07-18T09:32:54;93346.94;;;25.41;30.31
19763;BME280;10040;42.614;23.164;2022-07-18T09:35:24;93353.88;;;25.56;30.42
19763;BME280;10040;42.614;23.164;2022-07-18T09:37:56;93342.97;;;25.45;29.28
19763;BME280;10040;42.614;23.164;2022-07-18T09:40:26;93358.94;;;25.23;29.95
19763;BME280;10040;42.614;23.164;2022-07-18T09:42:55;93342.81;;;25.56;30.42
19763;BME280;10040;42.614;23.164;2022-07-18T09:45:25;93351.91;;;25.57;31.33
19763;BME280;10040;42.614;23.164;2022-07-18T09:47:54;93348.97;;;25.37;31.84
19763;BME280;10040;42.614;23.164;2022-07-18T09:50:24;93332.50;;;25.64;31.29
19763;BME280;10040;42.614;23.164;2022-07-18T09:53:00;93342.41;;;25.61;31.89
19763;BME280;10040;42.614;23.164;2022-07-18T09:55:27;93317.13;;;25.25;33.31
19763;BME280;10040;42.614;23.164;2022-07-18T09:58:00;93342.63;;;25.74;33.45
19763;BME280;10040;42.614;23.164;2022-07-18T10:00:30;93339.06;;;25.39;31.25
19763;BME280;10040;42.614;23.164;2022-07-18T10:02:58;93352.31;;;24.65;32.86
19763;BME280;10040;42.614;23.164;2022-07-18T10:05:27;93317.56;;;24.78;32.32
19763;BME280;10040;42.614;23.164;2022-07-18T10:07:57;93336.91;;;25.16;33.43
19763;BME280;10040;42.614;23.164;2022-07-18T10:10:27;93339.81;;;25.02;32.25
19763;BME280;10040;42.614;23.164;2022-07-18T10:12:56;93323.06;;;25.23;32.82
19763;BME280;10040;42.614;23.164;2022-07-18T10:15:25;93326.50;;;25.35;33.63
19763;BME280;10040;42.614;23.164;2022-07-18T10:17:53;93329.38;;;25.62;32.13
19763;BME280;10040;42.614;23.164;2022-07-18T10:20:30;93318.94;;;25.77;32.27
19763;BME280;10040;42.614;23.164;2022-07-18T10:23:06;93319.00;;;25.70;31.74
19763;BME280;10040;42.614;23.164;2022-07-18T10:25:35;93317.25;;;26.17;32.25
19763;BME280;10040;42.614;23.164;2022-07-18T10:28:08;93318.03;;;26.45;33.18
19763;BME280;10040;42.614;23.164;2022-07-18T10:30:38;93320.63;;;26.01;31.47
19763;BME280;10040;42.614;23.164;2022-07-18T10:33:37;93305.72;;;26.22;31.34
19763;BME280;10040;42.614;23.164;2022-07-18T10:36:07;93324.34;;;26.46;30.32
19763;BME280;10040;42.614;23.164;2022-07-18T10:38:37;93322.25;;;26.26;31.92
19763;BME280;10040;42.614;23.164;2022-07-18T10:41:07;93312.19;;;26.12;33.05
19763;BME280;10040;42.614;23.164;2022-07-18T10:43:44;93306.16;;;26.48;32.40
19763;BME280;10040;42.614;23.164;2022-07-18T10:46:12;93315.06;;;26.32;31.56
19763;BME280;10040;42.614;23.164;2022-07-18T10:48:56;93303.22;;;26.59;32.49
19763;BME280;10040;42.614;23.164;2022-07-18T10:51:32;93295.56;;;26.70;33.62
19763;BME280;10040;42.614;23.164;2022-07-18T10:54:09;93305.88;;;26.66;33.38
19763;BME280;10040;42.614;23.164;2022-07-18T10:57:06;93311.28;;;26.50;32.57
19763;BME280;10040;42.614;23.164;2022-07-18T10:59:38;93307.00;;;26.45;31.73
19763;BME280;10040;42.614;23.164;2022-07-18T11:02:07;93312.03;;;26.50;31.87
19763;BME280;10040;42.614;23.164;2022-07-18T11:04:37;93300.03;;;26.61;33.97
19763;BME280;10040;42.614;23.164;2022-07-18T11:07:09;93306.88;;;26.52;31.77
19763;BME280;10040;42.614;23.164;2022-07-18T11:09:41;93295.06;;;26.75;33.78
19763;BME280;10040;42.614;23.164;2022-07-18T11:12:23;93292.56;;;27.08;32.25
19763;BME280;10040;42.614;23.164;2022-07-18T11:15:06;93293.41;;;27.05;31.52
19763;BME280;10040;42.614;23.164;2022-07-18T11:17:59;93298.66;;;27.43;33.55
19763;BME280;10040;42.614;23.164;2022-07-18T11:20:41;93298.44;;;27.34;31.22
19763;BME280;10040;42.614;23.164;2022-07-18T11:23:19;93300.34;;;27.37;33.03
19763;BME280;10040;42.614;23.164;2022-07-18T11:25:50;93300.72;;;27.16;32.41
19763;BME280;10040;42.614;23.164;2022-07-18T11:28:18;93297.19;;;26.91;32.80
19763;BME280;10040;42.614;23.164;2022-07-18T11:30:46;93294.06;;;27.13;31.22
19763;BME280;10040;42.614;23.164;2022-07-18T11:33:21;93292.72;;;27.21;30.93
19763;BME280;10040;42.614;23.164;2022-07-18T11:35:49;93292.66;;;27.01;31.54
19763;BME280;10040;42.614;23.164;2022-07-18T11:38:17;93290.50;;;26.89;33.14
19763;BME280;10040;42.614;23.164;2022-07-18T11:40:51;93292.06;;;27.13;32.09
19763;BME280;10040;42.614;23.164;2022-07-18T11:43:23;93284.41;;;27.21;32.04
19763;BME280;10040;42.614;23.164;2022-07-18T11:46:01;93275.66;;;27.23;30.97
19763;BME280;10040;42.614;23.164;2022-07-18T11:48:29;93279.84;;;27.35;32.41
19763;BME280;10040;42.614;23.164;2022-07-18T11:50:57;93278.09;;;27.21;30.90
19763;BME280;10040;42.614;23.164;2022-07-18T11:53:25;93284.75;;;27.47;32.67
19763;BME280;10040;42.614;23.164;2022-07-18T11:55:55;93276.00;;;27.48;31.71
19763;BME280;10040;42.614;23.164;2022-07-18T11:58:42;93275.00;;;27.59;33.15
19763;BME280;10040;42.614;23.164;2022-07-18T12:01:10;93263.00;;;27.85;30.91
19763;BME280;10040;42.614;23.164;2022-07-18T12:03:41;93265.72;;;28.26;33.21
19763;BME280;10040;42.614;23.164;2022-07-18T12:06:10;93266.50;;;27.26;32.60
19763;BME280;10040;42.614;23.164;2022-07-18T12:08:40;93265.28;;;27.50;32.33
19763;BME280;10040;42.614;23.164;2022-07-18T12:11:11;93299.38;;;27.67;32.90
19763;BME280;10040;42.614;23.164;2022-07-18T12:13:46;93264.22;;;27.44;31.99
19763;BME280;10040;42.614;23.164;2022-07-18T12:16:24;93266.78;;;27.35;31.67
19763;BME280;10040;42.614;23.164;2022-07-18T12:18:53;93272.16;;;27.42;31.47
19763;BME280;10040;42.614;23.164;2022-07-18T12:21:21;93254.03;;;27.78;32.19
19763;BME280;10040;42.614;23.164;2022-07-18T12:23:49;93251.84;;;28.26;31.79
19763;BME280;10040;42.614;23.164;2022-07-18T12:26:28;93258.81;;;28.50;31.99
19763;BME280;10040;42.614;23.164;2022-07-18T12:29:07;93245.41;;;28.65;31.92
19763;BME280;10040;42.614;23.164;2022-07-18T12:31:37;93251.94;;;28.88;31.66
19763;BME280;10040;42.614;23.164;2022-07-18T12:34:09;93256.97;;;28.43;30.74
19763;BME280;10040;42.614;23.164;2022-07-18T12:36:50;93262.56;;;28.60;31.20
19763;BME280;10040;42.614;23.164;2022-07-18T12:39:26;93251.06;;;27.88;32.71
19763;BME280;10040;42.614;23.164;2022-07-18T12:41:55;93247.31;;;28.15;31.08
19763;BME280;10040;42.614;23.164;2022-07-18T12:44:23;93247.47;;;27.72;31.75
19763;BME280;10040;42.614;23.164;2022-07-18T12:46:51;93234.44;;;27.68;33.21
19763;BME280;10040;42.614;23.164;2022-07-18T12:49:19;93247.91;;;28.07;32.75
19763;BME280;10040;42.614;23.164;2022-07-18T12:51:47;93246.41;;;28.38;31.10
19763;BME280;10040;42.614;23.164;2022-07-18T12:54:17;93249.44;;;28.44;30.51
19763;BME280;10040;42.614;23.164;2022-07-18T12:56:44;93238.84;;;28.22;30.35
19763;BME280;10040;42.614;23.164;2022-07-18T12:59:13;93250.81;;;28.52;31.10
19763;BME280;10040;42.614;23.164;2022-07-18T13:01:40;93249.34;;;28.48;30.25